Time;durP1;ratioP1;P1;durP2;ratioP2;P2;SDS_P1;SDS_P2;PMS_P1;PMS_P2;Temp;Humidity;BMP_temperature;BMP_pressure;BME280_temperature;BME280_humidity;BME280_pressure;Samples;Min_cycle;Max_cycle;Signal;HPM_P1;HPM_P2
2021/06/07 00:02:14;;;;;;;14.32;9.80;;;17.50;99.90;;;;;;5036276;28;20645;-75
2021/06/07 00:04:40;;;;;;;19.40;11.65;;;17.40;99.90;;;;;;5036208;28;20291;-76
2021/06/07 00:07:08;;;;;;;17.75;11.68;;;17.50;99.90;;;;;;5035971;28;20295;-75
2021/06/07 00:09:37;;;;;;;21.70;11.43;;;17.60;99.90;;;;;;5036078;28;20204;-76
2021/06/07 00:12:09;;;;;;;19.15;11.77;;;17.60;99.90;;;;;;5035731;28;20315;-76
2021/06/07 00:14:36;;;;;;;19.40;11.50;;;17.60;99.90;;;;;;5036032;28;20207;-76
2021/06/07 00:17:04;;;;;;;21.67;12.52;;;17.60;99.90;;;;;;5035893;28;20311;-76
2021/06/07 00:19:32;;;;;;;17.23;10.73;;;17.70;99.90;;;;;;5035932;28;20200;-76
2021/06/07 00:22:00;;;;;;;18.90;10.85;;;17.70;99.90;;;;;;5035549;28;20828;-76
2021/06/07 00:24:27;;;;;;;17.08;11.85;;;17.80;99.90;;;;;;5035825;28;20569;-76
2021/06/07 00:26:55;;;;;;;20.88;12.63;;;17.80;99.90;;;;;;5035496;28;20666;-76
2021/06/07 00:29:22;;;;;;;18.20;11.55;;;17.80;99.90;;;;;;5035747;28;20294;-76
2021/06/07 00:31:48;;;;;;;17.95;11.50;;;17.80;99.90;;;;;;5035215;28;20240;-76
2021/06/07 00:34:15;;;;;;;22.52;12.65;;;17.80;99.90;;;;;;5035606;28;20243;-76
2021/06/07 00:36:42;;;;;;;21.10;12.32;;;17.80;99.90;;;;;;5035214;28;20208;-76
2021/06/07 00:39:13;;;;;;;20.20;12.00;;;17.80;99.90;;;;;;5035521;28;20208;-76
2021/06/07 00:41:40;;;;;;;19.25;12.18;;;17.80;99.90;;;;;;5035281;28;20352;-76
2021/06/07 00:44:10;;;;;;;17.30;11.43;;;17.70;99.90;;;;;;5035565;28;20624;-76
2021/06/07 00:46:38;;;;;;;20.20;11.52;;;17.70;99.90;;;;;;5035698;28;20302;-76
2021/06/07 00:49:05;;;;;;;19.92;12.95;;;17.70;99.90;;;;;;5035238;28;20227;-75
2021/06/07 00:51:31;;;;;;;22.95;12.02;;;17.70;99.90;;;;;;5034895;28;20291;-76
2021/06/07 00:53:57;;;;;;;18.83;11.35;;;17.80;99.90;;;;;;5035221;28;20257;-76
2021/06/07 00:56:24;;;;;;;17.63;11.15;;;17.80;99.90;;;;;;5034141;28;20291;-76
2021/06/07 00:58:51;;;;;;;18.90;10.73;;;17.80;99.90;;;;;;5035163;28;20603;-76
2021/06/07 01:01:21;;;;;;;17.27;10.80;;;17.70;99.90;;;;;;5034779;28;20295;-75
2021/06/07 01:03:51;;;;;;;18.30;11.93;;;17.80;99.90;;;;;;5035443;28;20616;-76
2021/06/07 01:06:17;;;;;;;15.45;10.32;;;17.80;99.90;;;;;;5035004;28;20287;-76
2021/06/07 01:08:44;;;;;;;16.45;10.52;;;17.80;99.90;;;;;;5035015;28;20562;-76
2021/06/07 01:11:11;;;;;;;18.95;11.57;;;17.80;99.90;;;;;;5034699;28;20200;-76
2021/06/07 01:13:38;;;;;;;22.17;12.32;;;17.70;99.90;;;;;;5034890;28;20334;-75
2021/06/07 01:16:05;;;;;;;16.38;10.50;;;17.70;99.90;;;;;;5034819;28;20208;-76
2021/06/07 01:18:34;;;;;;;16.17;10.48;;;17.70;99.90;;;;;;5034616;28;20242;-75
2021/06/07 01:21:03;;;;;;;19.15;10.40;;;17.70;99.90;;;;;;5034449;28;20658;-77
2021/06/07 01:23:31;;;;;;;17.27;11.30;;;17.70;99.90;;;;;;5034723;28;20220;-76
2021/06/07 01:26:00;;;;;;;19.73;11.02;;;17.80;99.90;;;;;;5034789;28;20207;-76
2021/06/07 01:28:27;;;;;;;16.48;10.75;;;17.70;99.90;;;;;;5034598;28;20200;-76
2021/06/07 01:30:54;;;;;;;20.13;12.35;;;17.70;99.90;;;;;;5034092;28;20291;-76
2021/06/07 01:33:23;;;;;;;19.83;12.10;;;17.60;99.90;;;;;;5034481;28;20223;-76
2021/06/07 01:35:51;;;;;;;14.43;9.68;;;17.50;99.90;;;;;;5034433;28;20622;-76
2021/06/07 01:38:18;;;;;;;17.73;9.98;;;17.50;99.90;;;;;;5034168;28;20314;-76
2021/06/07 01:40:48;;;;;;;19.55;11.98;;;17.60;99.90;;;;;;5034041;28;20296;-76
2021/06/07 01:43:15;;;;;;;16.95;11.27;;;17.60;99.90;;;;;;5034364;28;20239;-76
2021/06/07 01:45:44;;;;;;;20.60;11.82;;;17.60;99.90;;;;;;5034240;28;20299;-76
2021/06/07 01:48:12;;;;;;;18.23;10.35;;;17.70;99.90;;;;;;5034278;28;20214;-76
2021/06/07 01:50:40;;;;;;;19.98;12.10;;;17.60;99.90;;;;;;5034024;28;20212;-76
2021/06/07 01:53:07;;;;;;;18.52;10.35;;;17.60;99.90;;;;;;5034193;28;20232;-76
2021/06/07 01:55:35;;;;;;;18.67;10.38;;;17.60;99.90;;;;;;5034030;28;20608;-76
2021/06/07 01:58:04;;;;;;;18.63;11.55;;;17.60;99.90;;;;;;5034033;28;20256;-76
2021/06/07 02:00:34;;;;;;;18.85;11.80;;;17.60;99.90;;;;;;5033824;28;20653;-76
2021/06/07 02:03:00;;;;;;;19.52;11.00;;;17.60;99.90;;;;;;5034474;28;20569;-76
2021/06/07 02:05:33;;;;;;;22.20;10.68;;;17.50;99.90;;;;;;5033947;28;20303;-76
2021/06/07 02:08:01;;;;;;;16.92;12.15;;;17.50;99.90;;;;;;5033538;28;20206;-76
2021/06/07 02:10:30;;;;;;;19.95;11.70;;;17.50;99.90;;;;;;5033561;28;20250;-76
2021/06/07 02:12:56;;;;;;;18.77;10.30;;;17.50;99.90;;;;;;5033763;28;20235;-76
2021/06/07 02:15:24;;;;;;;21.55;12.65;;;17.50;99.90;;;;;;5033869;28;20326;-76
2021/06/07 02:17:50;;;;;;;18.48;10.32;;;17.60;99.90;;;;;;5033748;28;20647;-76
2021/06/07 02:20:19;;;;;;;20.35;10.63;;;17.50;99.90;;;;;;5033559;28;20207;-76
2021/06/07 02:22:46;;;;;;;22.70;11.68;;;17.60;99.90;;;;;;5033647;28;20306;-75
2021/06/07 02:25:14;;;;;;;16.95;10.88;;;17.60;99.90;;;;;;5033689;28;20309;-75
2021/06/07 02:27:41;;;;;;;22.30;11.93;;;17.60;99.90;;;;;;5033633;28;20292;-76
2021/06/07 02:30:11;;;;;;;20.23;11.02;;;17.60;99.90;;;;;;5033479;28;20204;-75
2021/06/07 02:32:39;;;;;;;19.38;10.32;;;17.50;99.90;;;;;;5033464;28;20236;-76
2021/06/07 02:35:06;;;;;;;17.13;11.07;;;17.40;99.90;;;;;;5033449;28;20654;-75
2021/06/07 02:37:33;;;;;;;21.55;11.70;;;17.40;99.90;;;;;;5033644;28;20220;-76
2021/06/07 02:39:59;;;;;;;22.38;11.30;;;17.30;99.90;;;;;;5033288;28;20211;-76
2021/06/07 02:42:26;;;;;;;25.27;11.90;;;17.30;99.90;;;;;;5033475;28;20323;-76
2021/06/07 02:44:52;;;;;;;18.70;11.25;;;17.40;99.90;;;;;;5033274;28;20200;-76
2021/06/07 02:47:18;;;;;;;20.13;11.73;;;17.30;99.90;;;;;;5033312;28;20284;-76
2021/06/07 02:49:46;;;;;;;19.85;11.70;;;17.40;99.90;;;;;;5033645;28;20210;-76
2021/06/07 02:52:12;;;;;;;22.05;11.45;;;17.40;99.90;;;;;;5033257;28;20255;-76
2021/06/07 02:54:39;;;;;;;20.95;11.60;;;17.40;99.90;;;;;;5033412;28;20207;-76
2021/06/07 02:57:06;;;;;;;23.35;12.20;;;17.50;99.90;;;;;;5033083;28;20297;-76
2021/06/07 02:59:33;;;;;;;18.88;11.20;;;17.60;99.90;;;;;;5033359;28;20295;-75
2021/06/07 03:01:59;;;;;;;18.67;10.10;;;17.60;99.90;;;;;;5033128;28;20224;-75
2021/06/07 03:04:25;;;;;;;20.00;11.48;;;17.60;99.90;;;;;;5033415;28;20211;-76
2021/06/07 03:06:53;;;;;;;20.85;11.70;;;17.60;99.90;;;;;;5033198;28;20295;-76
2021/06/07 03:09:19;;;;;;;20.05;12.43;;;17.60;99.90;;;;;;5033244;28;20214;-76
2021/06/07 03:11:46;;;;;;;24.20;12.38;;;17.60;99.90;;;;;;5032921;28;20224;-75
2021/06/07 03:14:12;;;;;;;18.25;11.70;;;17.60;99.90;;;;;;5033379;28;20240;-75
2021/06/07 03:16:39;;;;;;;20.13;11.70;;;17.50;99.90;;;;;;5033447;28;20634;-75
2021/06/07 03:19:05;;;;;;;21.10;11.25;;;17.50;99.90;;;;;;5033143;28;20314;-76
2021/06/07 03:21:33;;;;;;;22.45;13.20;;;17.40;99.90;;;;;;5036681;28;20332;-76
2021/06/07 03:24:01;;;;;;;20.55;12.07;;;17.40;99.90;;;;;;5036992;28;20208;-75
2021/06/07 03:26:27;;;;;;;24.17;12.80;;;17.50;99.90;;;;;;5036869;28;20306;-75
2021/06/07 03:28:56;;;;;;;25.20;12.57;;;17.50;99.90;;;;;;5036751;28;20207;-76
2021/06/07 03:31:24;;;;;;;21.65;11.93;;;17.40;99.90;;;;;;5036318;28;20350;-75
2021/06/07 03:33:50;;;;;;;21.17;12.20;;;17.40;99.90;;;;;;5036554;28;20212;-75
2021/06/07 03:36:17;;;;;;;20.40;12.30;;;17.50;99.90;;;;;;5036663;28;20303;-76
2021/06/07 03:38:43;;;;;;;20.45;12.20;;;17.50;99.90;;;;;;5036642;28;20239;-75
2021/06/07 03:41:11;;;;;;;17.70;11.30;;;17.50;99.90;;;;;;5036479;28;20273;-76
2021/06/07 03:43:38;;;;;;;27.17;12.35;;;17.50;99.90;;;;;;5036847;28;20220;-76
2021/06/07 03:46:05;;;;;;;22.60;12.60;;;17.40;99.90;;;;;;5036615;28;20602;-76
2021/06/07 03:48:32;;;;;;;25.45;15.35;;;17.50;99.90;;;;;;5036503;28;20548;-77
2021/06/07 03:50:59;;;;;;;27.55;13.52;;;17.60;99.90;;;;;;5036037;28;20298;-75
2021/06/07 03:53:25;;;;;;;26.42;13.43;;;17.50;99.90;;;;;;5036587;28;20317;-76
2021/06/07 03:55:52;;;;;;;19.58;12.00;;;17.40;99.90;;;;;;5036357;28;20689;-76
2021/06/07 03:58:20;;;;;;;20.00;12.13;;;17.40;99.90;;;;;;5036286;28;20311;-76
2021/06/07 04:00:46;;;;;;;22.13;12.25;;;17.40;99.90;;;;;;5036017;28;20210;-75
2021/06/07 04:03:13;;;;;;;23.15;13.02;;;17.40;99.90;;;;;;5036025;28;20319;-76
2021/06/07 04:05:40;;;;;;;21.85;12.95;;;17.40;99.90;;;;;;5036239;28;20622;-76
2021/06/07 04:08:09;;;;;;;22.38;12.32;;;17.40;99.90;;;;;;5036104;28;20204;-76
2021/06/07 04:10:35;;;;;;;25.40;12.43;;;17.40;99.90;;;;;;5035733;28;20279;-75
2021/06/07 04:13:01;;;;;;;18.58;10.52;;;17.40;99.90;;;;;;5036059;28;20648;-76
2021/06/07 04:15:30;;;;;;;20.00;11.98;;;17.40;99.90;;;;;;5035790;28;20291;-76
2021/06/07 04:17:57;;;;;;;26.33;13.95;;;17.40;99.90;;;;;;5035787;28;20271;-76
2021/06/07 04:20:26;;;;;;;28.27;12.80;;;17.30;99.90;;;;;;5035542;28;20659;-76
2021/06/07 04:22:52;;;;;;;20.98;12.82;;;17.30;99.90;;;;;;5035974;28;20228;-76
2021/06/07 04:25:21;;;;;;;24.05;12.52;;;17.30;99.90;;;;;;5035867;28;20212;-76
2021/06/07 04:27:48;;;;;;;20.70;12.07;;;17.40;99.90;;;;;;5035709;28;20208;-75
2021/06/07 04:30:17;;;;;;;22.52;11.80;;;17.30;99.90;;;;;;5035314;28;20579;-75
2021/06/07 04:32:46;;;;;;;18.13;10.88;;;17.30;99.90;;;;;;5035355;28;20598;-76
2021/06/07 04:35:14;;;;;;;18.65;10.88;;;17.30;99.90;;;;;;5035690;28;20214;-75
2021/06/07 04:37:43;;;;;;;20.92;11.63;;;17.30;99.90;;;;;;5035574;28;20282;-76
2021/06/07 04:40:11;;;;;;;22.67;11.30;;;17.20;99.90;;;;;;5035378;28;20201;-75
2021/06/07 04:42:38;;;;;;;20.73;11.48;;;17.10;99.90;;;;;;5035469;28;20230;-76
2021/06/07 04:45:07;;;;;;;18.92;11.30;;;17.20;99.90;;;;;;5035513;28;20290;-76
2021/06/07 04:47:33;;;;;;;25.77;12.70;;;17.30;99.90;;;;;;5035462;28;20287;-76
2021/06/07 04:50:02;;;;;;;21.27;11.10;;;17.20;99.90;;;;;;5035221;28;20214;-76
2021/06/07 04:52:28;;;;;;;20.98;11.85;;;17.20;99.90;;;;;;5035270;28;20320;-75
2021/06/07 04:54:55;;;;;;;21.50;11.95;;;17.20;99.90;;;;;;5035173;28;20670;-75
2021/06/07 04:57:21;;;;;;;23.00;12.27;;;17.20;99.90;;;;;;5035169;28;20240;-76
2021/06/07 04:59:47;;;;;;;21.65;10.73;;;17.10;99.90;;;;;;5035056;28;20287;-76
2021/06/07 05:02:14;;;;;;;19.83;13.25;;;17.10;99.90;;;;;;5034848;28;20788;-75
2021/06/07 05:04:40;;;;;;;19.02;11.55;;;17.10;99.90;;;;;;5035120;28;20294;-76
2021/06/07 05:07:08;;;;;;;28.55;12.75;;;17.10;99.90;;;;;;5035144;28;20218;-76
2021/06/07 05:09:34;;;;;;;19.73;11.73;;;17.20;99.90;;;;;;5035054;28;20290;-75
2021/06/07 05:12:04;;;;;;;26.40;10.52;;;17.20;99.90;;;;;;5034592;28;20314;-76
2021/06/07 05:14:31;;;;;;;21.77;11.45;;;17.20;99.90;;;;;;5034936;28;20294;-76
2021/06/07 05:16:57;;;;;;;21.67;12.95;;;17.10;99.90;;;;;;5034891;28;20236;-76
2021/06/07 05:19:24;;;;;;;22.17;11.70;;;17.10;99.90;;;;;;5034556;28;20228;-76
2021/06/07 05:21:50;;;;;;;22.75;11.07;;;17.10;99.90;;;;;;5034342;28;20224;-76
2021/06/07 05:24:18;;;;;;;25.20;13.25;;;17.10;99.90;;;;;;5034803;28;20302;-76
2021/06/07 05:26:44;;;;;;;21.05;11.45;;;17.10;99.90;;;;;;5034653;28;20242;-76
2021/06/07 05:29:10;;;;;;;23.25;11.93;;;17.10;99.90;;;;;;5034664;28;20303;-76
2021/06/07 05:31:37;;;;;;;25.48;11.15;;;17.20;99.90;;;;;;5034248;28;20694;-76
2021/06/07 05:34:03;;;;;;;21.88;12.25;;;17.20;99.90;;;;;;5034317;28;20323;-76
2021/06/07 05:36:29;;;;;;;22.60;11.77;;;17.20;99.90;;;;;;5034519;28;20242;-75
2021/06/07 05:38:56;;;;;;;25.52;12.65;;;17.20;99.90;;;;;;5034361;28;20390;-76
2021/06/07 05:41:23;;;;;;;21.20;10.70;;;17.20;99.90;;;;;;5033957;28;20640;-76
2021/06/07 05:43:50;;;;;;;20.33;10.35;;;17.20;99.90;;;;;;5033833;28;20298;-76
2021/06/07 05:46:16;;;;;;;19.52;10.30;;;17.20;99.90;;;;;;5034205;28;20214;-76
2021/06/07 05:48:42;;;;;;;21.30;10.85;;;17.30;99.90;;;;;;5034259;28;20235;-76
2021/06/07 05:51:09;;;;;;;20.90;11.52;;;17.30;99.90;;;;;;5033911;28;20631;-75
2021/06/07 05:53:35;;;;;;;20.35;10.98;;;17.30;99.90;;;;;;5034085;28;20695;-76
2021/06/07 05:56:01;;;;;;;19.60;10.80;;;17.30;99.90;;;;;;5034149;28;20562;-75
2021/06/07 05:58:29;;;;;;;19.48;11.18;;;17.40;99.90;;;;;;5033833;28;20311;-75
2021/06/07 06:00:55;;;;;;;19.15;11.25;;;17.40;99.90;;;;;;5033918;28;20235;-75
2021/06/07 06:03:22;;;;;;;19.83;10.85;;;17.40;99.90;;;;;;5034284;28;20308;-76
2021/06/07 06:05:48;;;;;;;20.60;11.13;;;17.20;99.90;;;;;;5033982;28;20231;-76
2021/06/07 06:08:18;;;;;;;17.67;10.60;;;17.20;99.90;;;;;;5033888;28;20231;-76
2021/06/07 06:10:44;;;;;;;25.00;11.07;;;17.30;99.90;;;;;;5033819;28;20208;-75
2021/06/07 06:13:11;;;;;;;20.52;11.25;;;17.30;99.90;;;;;;5033866;28;20239;-76
2021/06/07 06:15:39;;;;;;;22.38;10.98;;;17.10;99.90;;;;;;5033816;28;20239;-76
2021/06/07 06:18:05;;;;;;;16.75;9.35;;;17.20;99.90;;;;;;5033745;28;20234;-76
2021/06/07 06:20:33;;;;;;;24.08;10.93;;;17.10;99.90;;;;;;5033495;28;20675;-75
2021/06/07 06:23:00;;;;;;;15.60;9.75;;;17.00;99.90;;;;;;5033636;28;20231;-76
2021/06/07 06:25:27;;;;;;;21.48;10.82;;;17.10;99.90;;;;;;5033695;28;20302;-76
2021/06/07 06:27:53;;;;;;;19.98;10.80;;;17.20;99.90;;;;;;5033510;28;20214;-76
2021/06/07 06:30:23;;;;;;;20.67;10.57;;;17.20;99.90;;;;;;5033290;28;20212;-76
2021/06/07 06:32:53;;;;;;;21.30;10.50;;;17.30;99.90;;;;;;5033519;28;20582;-76
2021/06/07 06:35:19;;;;;;;23.27;10.75;;;17.30;99.90;;;;;;5033598;28;20295;-76
2021/06/07 06:37:47;;;;;;;20.20;9.40;;;17.30;99.90;;;;;;5033528;28;20256;-75
2021/06/07 06:40:17;;;;;;;18.02;9.55;;;17.40;99.90;;;;;;5033159;28;20674;-76
2021/06/07 06:42:43;;;;;;;19.77;10.07;;;17.40;99.90;;;;;;5033991;28;20275;-75
2021/06/07 06:45:11;;;;;;;18.65;10.27;;;17.40;99.90;;;;;;5033485;28;20257;-75
2021/06/07 06:47:38;;;;;;;20.67;9.18;;;17.40;99.90;;;;;;5033479;28;20211;-76
2021/06/07 06:50:09;;;;;;;16.67;9.10;;;17.40;99.90;;;;;;5033221;28;20208;-75
2021/06/07 06:52:36;;;;;;;16.55;8.60;;;17.40;99.90;;;;;;5033433;28;20246;-76
2021/06/07 06:55:04;;;;;;;16.90;8.95;;;17.50;99.90;;;;;;5035048;28;20211;-76
2021/06/07 06:57:30;;;;;;;13.15;8.20;;;17.50;99.90;;;;;;5037454;28;20295;-76
2021/06/07 06:59:56;;;;;;;15.35;8.57;;;17.50;99.90;;;;;;5037295;28;20310;-76
2021/06/07 07:02:23;;;;;;;16.98;9.05;;;17.50;99.90;;;;;;5037251;28;20310;-75
2021/06/07 07:04:49;;;;;;;15.52;8.93;;;17.40;99.90;;;;;;5037439;28;20599;-75
2021/06/07 07:07:17;;;;;;;16.27;9.88;;;17.40;99.90;;;;;;5037324;28;20210;-76
2021/06/07 07:09:43;;;;;;;21.75;10.57;;;17.40;99.90;;;;;;5037279;28;20200;-76
2021/06/07 07:12:10;;;;;;;17.30;8.73;;;17.40;99.90;;;;;;5036929;28;20227;-76
2021/06/07 07:14:37;;;;;;;15.50;9.10;;;17.30;99.90;;;;;;5037252;28;20216;-75
2021/06/07 07:17:04;;;;;;;18.88;8.50;;;17.30;99.90;;;;;;5037071;28;20204;-76
2021/06/07 07:19:31;;;;;;;15.90;8.40;;;17.30;99.90;;;;;;5036788;28;20762;-75
2021/06/07 07:21:57;;;;;;;17.25;9.15;;;17.40;99.90;;;;;;5036813;28;20585;-76
2021/06/07 07:24:25;;;;;;;12.50;8.27;;;17.40;99.90;;;;;;5037320;28;20208;-76
2021/06/07 07:26:51;;;;;;;18.20;10.02;;;17.40;99.90;;;;;;5036991;28;20298;-76
2021/06/07 07:29:18;;;;;;;18.13;8.75;;;17.40;99.90;;;;;;5036862;28;20234;-76
2021/06/07 07:31:44;;;;;;;18.13;8.18;;;17.40;99.90;;;;;;5036311;28;20319;-76
2021/06/07 07:34:10;;;;;;;13.80;8.93;;;17.40;99.90;;;;;;5036847;28;20210;-76
2021/06/07 07:36:37;;;;;;;16.55;9.23;;;17.40;99.90;;;;;;5037028;28;20303;-76
2021/06/07 07:39:04;;;;;;;14.82;8.32;;;17.30;99.90;;;;;;5036765;28;20220;-76
2021/06/07 07:41:32;;;;;;;12.88;8.43;;;17.40;99.90;;;;;;5036467;28;20274;-76
2021/06/07 07:43:58;;;;;;;16.58;8.90;;;17.40;99.90;;;;;;5036700;28;20310;-76
2021/06/07 07:46:24;;;;;;;13.63;9.90;;;17.40;99.90;;;;;;5036576;28;20295;-76
2021/06/07 07:48:51;;;;;;;16.80;8.07;;;17.20;99.90;;;;;;5036563;28;20295;-76
2021/06/07 07:51:17;;;;;;;15.02;7.80;;;17.10;99.90;;;;;;5036310;28;20295;-76
2021/06/07 07:53:43;;;;;;;16.17;8.50;;;17.20;99.90;;;;;;5036449;28;20315;-76
2021/06/07 07:56:10;;;;;;;16.45;8.30;;;17.30;99.90;;;;;;5036356;28;20235;-76
2021/06/07 07:58:37;;;;;;;11.10;7.18;;;17.30;99.90;;;;;;5036241;28;20238;-76
2021/06/07 08:01:04;;;;;;;13.90;8.90;;;17.30;99.90;;;;;;5036189;28;20327;-76
2021/06/07 08:03:33;;;;;;;14.85;8.20;;;17.40;99.90;;;;;;5036297;28;20220;-76
2021/06/07 08:06:00;;;;;;;11.35;6.90;;;17.60;99.90;;;;;;5035688;28;20206;-76
2021/06/07 08:08:26;;;;;;;10.50;6.35;;;17.70;99.90;;;;;;5036183;28;20216;-76
2021/06/07 08:10:56;;;;;;;11.40;6.65;;;17.70;99.90;;;;;;5035785;28;20236;-76
2021/06/07 08:13:22;;;;;;;10.57;6.65;;;17.80;99.90;;;;;;5036003;28;20267;-76
2021/06/07 08:15:50;;;;;;;11.85;6.50;;;17.90;99.90;;;;;;5036059;28;20207;-75
2021/06/07 08:18:17;;;;;;;10.57;6.05;;;17.90;99.90;;;;;;5035739;28;20257;-76
2021/06/07 08:20:43;;;;;;;9.05;5.88;;;17.90;99.90;;;;;;5035744;28;20580;-75
2021/06/07 08:23:09;;;;;;;10.52;6.43;;;17.90;99.90;;;;;;5035988;28;20231;-76
2021/06/07 08:25:36;;;;;;;8.75;5.07;;;17.80;99.90;;;;;;5036028;28;20625;-76
2021/06/07 08:28:03;;;;;;;9.50;5.63;;;17.70;99.90;;;;;;5035797;28;20207;-76
2021/06/07 08:30:32;;;;;;;8.15;4.93;;;17.60;99.90;;;;;;5035824;28;20204;-76
2021/06/07 08:33:00;;;;;;;9.18;5.10;;;17.60;99.90;;;;;;5035400;28;20644;-76
2021/06/07 08:35:26;;;;;;;7.05;5.40;;;17.60;99.90;;;;;;5035727;28;20215;-76
2021/06/07 08:37:54;;;;;;;7.60;5.32;;;17.70;99.90;;;;;;5035599;28;20228;-76
2021/06/07 08:40:21;;;;;;;10.00;6.25;;;17.70;99.90;;;;;;5035284;28;20208;-76
2021/06/07 08:42:47;;;;;;;9.40;5.65;;;17.80;99.90;;;;;;5035610;28;20583;-76
2021/06/07 08:45:16;;;;;;;8.75;5.80;;;17.80;99.90;;;;;;5035308;28;20210;-76
2021/06/07 08:47:44;;;;;;;9.52;6.10;;;17.90;99.90;;;;;;5035504;28;20238;-76
2021/06/07 08:50:13;;;;;;;9.52;6.55;;;17.80;99.90;;;;;;5035246;28;20235;-76
2021/06/07 08:52:43;;;;;;;12.18;6.88;;;17.90;99.90;;;;;;5035327;28;20311;-76
2021/06/07 08:55:10;;;;;;;9.85;6.57;;;17.90;99.90;;;;;;5035025;28;20208;-76
2021/06/07 08:57:40;;;;;;;11.88;6.55;;;17.70;99.90;;;;;;5035238;28;20215;-76
2021/06/07 09:00:08;;;;;;;9.60;6.15;;;17.70;99.90;;;;;;5035362;28;20295;-76
2021/06/07 09:02:36;;;;;;;12.70;8.02;;;17.70;99.90;;;;;;5034953;28;20274;-76
2021/06/07 09:05:04;;;;;;;11.45;7.00;;;17.60;99.90;;;;;;5035224;28;20300;-76
2021/06/07 09:07:32;;;;;;;13.55;7.60;;;17.60;99.90;;;;;;5035053;28;20616;-76
2021/06/07 09:10:13;;;;;;;13.10;7.55;;;17.60;99.90;;;;;;5034894;28;20208;-77
2021/06/07 09:12:42;;;;;;;13.02;8.57;;;17.60;99.90;;;;;;5035032;28;20224;-76
2021/06/07 09:15:14;;;;;;;12.80;8.10;;;17.60;99.90;;;;;;5034951;28;20273;-76
2021/06/07 09:17:45;;;;;;;17.25;9.23;;;17.80;99.90;;;;;;5033944;28;20242;-76
2021/06/07 09:20:14;;;;;;;13.82;8.75;;;18.00;99.90;;;;;;5034515;28;20200;-76
2021/06/07 09:22:49;;;;;;;13.38;8.10;;;18.00;99.90;;;;;;5035032;28;20228;-76
2021/06/07 09:25:16;;;;;;;10.80;8.23;;;18.10;99.90;;;;;;5034800;28;20207;-76
2021/06/07 09:28:05;;;;;;;12.50;7.80;;;18.20;99.90;;;;;;5034580;28;20299;-76
2021/06/07 09:30:37;;;;;;;13.38;7.50;;;18.20;99.90;;;;;;5034297;28;20605;-76
2021/06/07 09:33:25;;;;;;;10.95;7.20;;;18.20;99.90;;;;;;5034577;28;20289;-75
2021/06/07 09:36:11;;;;;;;15.40;8.20;;;18.00;99.90;;;;;;5034615;28;20599;-76
2021/06/07 09:39:10;;;;;;;11.88;7.80;;;18.10;99.90;;;;;;5034396;28;20234;-76
2021/06/07 09:41:56;;;;;;;11.35;7.93;;;18.10;99.90;;;;;;5034037;28;20204;-76
2021/06/07 09:44:26;;;;;;;12.38;8.18;;;18.20;99.90;;;;;;5034479;28;20284;-76
2021/06/07 09:47:05;;;;;;;9.25;7.05;;;18.20;99.90;;;;;;5034407;28;20200;-76
2021/06/07 09:49:38;;;;;;;10.65;7.40;;;18.20;99.90;;;;;;5034048;28;20669;-76
2021/06/07 09:52:09;;;;;;;13.27;8.77;;;18.30;99.90;;;;;;5034088;28;20236;-76
2021/06/07 09:54:37;;;;;;;14.73;8.80;;;18.40;99.90;;;;;;5034347;28;20273;-76
2021/06/07 09:57:04;;;;;;;11.63;8.18;;;18.40;99.90;;;;;;5034260;28;20247;-76
2021/06/07 09:59:33;;;;;;;11.43;8.27;;;18.40;99.90;;;;;;5033760;28;20228;-76
2021/06/07 10:02:01;;;;;;;13.77;8.38;;;18.50;99.90;;;;;;5033918;28;20677;-76
2021/06/07 10:04:57;;;;;;;12.13;8.68;;;18.50;99.90;;;;;;5034040;28;20307;-76
2021/06/07 10:07:25;;;;;;;13.90;8.85;;;18.40;99.90;;;;;;4989364;28;20205;-76
2021/06/07 10:10:13;;;;;;;12.88;8.82;;;18.60;99.90;;;;;;5033765;28;20243;-77
2021/06/07 10:12:41;;;;;;;14.40;8.88;;;18.60;99.90;;;;;;5033874;28;20227;-76
2021/06/07 10:15:09;;;;;;;14.60;9.68;;;18.70;99.90;;;;;;5033875;28;20204;-76
2021/06/07 10:17:35;;;;;;;16.13;9.48;;;18.60;99.90;;;;;;5033921;28;20294;-76
2021/06/07 10:22:47;;;;;;;14.70;8.65;;;18.40;99.90;;;;;;5033619;28;20301;-76
2021/06/07 10:25:15;;;;;;;15.95;8.57;;;18.40;99.90;;;;;;5034022;28;20299;-76
2021/06/07 10:27:41;;;;;;;14.85;9.15;;;18.50;99.90;;;;;;5033691;28;20290;-75
2021/06/07 10:30:22;;;;;;;14.52;8.40;;;18.40;99.90;;;;;;5033139;28;20237;-75
2021/06/07 10:32:49;;;;;;;15.45;9.10;;;18.50;99.90;;;;;;5033485;28;20243;-76
2021/06/07 10:35:29;;;;;;;11.55;7.85;;;18.60;99.90;;;;;;5033654;28;20211;-76
2021/06/07 10:38:08;;;;;;;14.15;8.65;;;18.60;99.90;;;;;;5033413;28;20301;-76
2021/06/07 10:40:41;;;;;;;13.18;9.02;;;18.70;99.90;;;;;;5033351;28;20204;-76
2021/06/07 10:43:09;;;;;;;13.13;8.60;;;18.70;99.90;;;;;;5034233;28;20231;-76
2021/06/07 10:45:38;;;;;;;13.77;8.68;;;18.70;99.90;;;;;;5033745;28;20246;-76
2021/06/07 10:48:06;;;;;;;14.75;8.27;;;18.70;99.90;;;;;;5033436;28;20209;-75
2021/06/07 10:50:35;;;;;;;13.80;8.53;;;18.70;99.90;;;;;;5033296;28;20295;-76
2021/06/07 10:53:05;;;;;;;13.93;9.07;;;18.60;99.90;;;;;;5033655;28;20478;-75
2021/06/07 10:55:34;;;;;;;15.00;9.25;;;18.60;99.90;;;;;;5033488;28;20203;-76
2021/06/07 10:58:05;;;;;;;17.38;10.60;;;18.70;99.90;;;;;;5033218;28;20234;-76
2021/06/07 11:00:38;;;;;;;19.33;10.37;;;18.60;99.90;;;;;;5033870;28;20204;-76
2021/06/07 11:03:16;;;;;;;12.85;9.90;;;18.50;99.90;;;;;;5033174;28;20512;-76
2021/06/07 11:05:44;;;;;;;15.45;9.90;;;18.40;99.90;;;;;;5033347;28;20295;-76
2021/06/07 11:08:16;;;;;;;15.77;9.40;;;18.50;99.90;;;;;;5033297;28;20600;-76
2021/06/07 11:10:43;;;;;;;14.52;9.35;;;18.60;99.90;;;;;;5033168;28;20208;-75
2021/06/07 11:13:12;;;;;;;12.83;8.80;;;18.70;99.90;;;;;;5033306;28;20590;-76
2021/06/07 11:15:42;;;;;;;15.73;10.00;;;18.70;99.90;;;;;;5033296;28;20529;-76
2021/06/07 11:18:20;;;;;;;15.13;9.40;;;18.70;99.90;;;;;;5033113;28;20204;-76
2021/06/07 11:20:48;;;;;;;15.00;9.43;;;18.80;99.90;;;;;;5032869;28;20209;-75
2021/06/07 11:23:15;;;;;;;14.27;8.98;;;18.80;99.90;;;;;;5033104;28;20220;-75
2021/06/07 11:25:51;;;;;;;11.40;8.47;;;18.90;99.90;;;;;;5033128;28;20229;-75
2021/06/07 11:28:47;;;;;;;12.05;7.65;;;19.00;99.90;;;;;;5033016;28;20448;-75
2021/06/07 11:31:50;;;;;;;12.75;8.68;;;19.10;99.90;;;;;;5032848;28;20254;-75
2021/06/07 11:34:20;;;;;;;15.50;9.60;;;19.00;99.90;;;;;;5032877;28;20291;-75
2021/06/07 11:36:56;;;;;;;13.53;8.53;;;18.90;99.90;;;;;;5032853;28;20449;-76
2021/06/07 11:39:24;;;;;;;14.20;9.27;;;18.90;99.90;;;;;;5033044;28;20475;-76
2021/06/07 11:41:53;;;;;;;15.18;10.35;;;18.80;99.90;;;;;;5035190;28;20521;-76
2021/06/07 11:44:47;;;;;;;12.85;8.45;;;18.70;99.90;;;;;;5036526;28;20208;-76
2021/06/07 11:47:15;;;;;;;13.50;8.55;;;18.60;99.90;;;;;;5036453;28;20199;-75
2021/06/07 11:50:07;;;;;;;11.93;8.27;;;18.80;99.90;;;;;;5036474;28;20226;-76
2021/06/07 11:52:51;;;;;;;13.47;8.33;;;19.00;99.90;;;;;;5036449;28;20468;-75
2021/06/07 11:55:21;;;;;;;11.43;8.23;;;19.00;99.90;;;;;;5036339;28;20852;-75
2021/06/07 11:57:48;;;;;;;15.85;10.10;;;19.00;99.90;;;;;;5036332;28;20236;-76
2021/06/07 12:00:17;;;;;;;15.30;9.45;;;19.00;99.90;;;;;;5035731;28;20315;-76
2021/06/07 12:02:44;;;;;;;13.73;8.43;;;18.90;99.90;;;;;;5036279;28;20238;-75
2021/06/07 12:05:12;;;;;;;13.50;8.70;;;19.00;99.90;;;;;;5036352;28;20291;-76
2021/06/07 12:07:42;;;;;;;16.60;9.67;;;19.00;99.90;;;;;;5035936;28;20204;-76
2021/06/07 12:10:13;;;;;;;13.50;9.40;;;19.00;99.90;;;;;;5035975;28;20858;-75
2021/06/07 12:12:39;;;;;;;16.45;9.48;;;19.00;99.90;;;;;;5035923;28;20310;-75
2021/06/07 12:15:10;;;;;;;13.82;9.80;;;18.90;99.90;;;;;;5036097;28;20295;-76
2021/06/07 12:17:44;;;;;;;13.47;9.23;;;18.90;99.90;;;;;;5035807;28;20689;-76
2021/06/07 12:20:11;;;;;;;15.68;9.30;;;19.00;99.90;;;;;;5035806;28;20890;-76
2021/06/07 12:22:39;;;;;;;17.00;10.90;;;19.00;99.90;;;;;;5035762;28;20258;-76
2021/06/07 12:25:19;;;;;;;16.50;10.10;;;19.20;99.90;;;;;;5035988;28;20447;-76
2021/06/07 12:30:32;;;;;;;14.43;8.83;;;19.40;99.90;;;;;;5035705;28;20448;-75
2021/06/07 12:33:00;;;;;;;15.80;9.97;;;19.50;99.90;;;;;;5035419;28;20993;-76
2021/06/07 12:35:31;;;;;;;15.30;10.10;;;19.40;99.90;;;;;;5035589;28;20443;-75
2021/06/07 12:38:00;;;;;;;16.67;10.87;;;19.30;99.90;;;;;;5035634;28;20475;-76
2021/06/07 12:40:32;;;;;;;15.13;10.50;;;19.20;99.90;;;;;;5035694;28;20514;-75
2021/06/07 12:43:17;;;;;;;18.17;11.77;;;19.20;99.90;;;;;;5035536;28;20557;-76
2021/06/07 12:45:45;;;;;;;14.50;9.53;;;19.20;99.90;;;;;;5035532;28;20522;-75